Allen, Texas
Current Conditions -  °F | °C
As of 11:53 PM on Sunday 21 Dec 2014 (Local Time) from KTKI Reporting Station
Overcast Overcast  
Wind Chill: 51°   Ceiling: 1100
Heat Index: 51°   Visibility: 10mi
Dew Point: 48°   Wind: 17mph
Humidity: 89%   Direction: 170°S
Pressure: 29.72"   Gusts: NA
Location:  33.1°N, 96.67°W
Report Text: KTKI 220553Z AUTO 17015KT 10SM OVC011 11/09 A2972 RMK AO2 SLP072 T01060089 10106 20094 401060078 58025
Loading
Personal Weather Stations






























Interactive Weather Map New forecast layout! Learn more

10-Day Weather Forecast

Advertisements
Track Severe Weather on mobile